createdAt,value
2022-11-20T00:01:05.118Z,22.83
2022-11-20T00:03:32.184Z,20.20
2022-11-20T00:06:03.552Z,20.60
2022-11-20T00:08:30.630Z,20.67
2022-11-20T00:10:57.695Z,19.20
2022-11-20T00:13:24.874Z,18.70
2022-11-20T00:15:58.820Z,21.50
2022-11-20T00:18:26.600Z,20.63
2022-11-20T00:20:53.716Z,23.83
2022-11-20T00:23:21.017Z,22.07
2022-11-20T00:25:48.165Z,21.03
2022-11-20T00:28:15.316Z,22.10
2022-11-20T00:30:42.539Z,20.10
2022-11-20T00:33:09.666Z,18.13
2022-11-20T00:35:36.842Z,18.10
2022-11-20T00:38:04.005Z,21.10
2022-11-20T00:40:31.180Z,22.90
2022-11-20T00:42:58.343Z,21.77
2022-11-20T00:45:25.511Z,22.70
2022-11-20T00:47:52.763Z,22.87
2022-11-20T00:50:19.906Z,21.90
2022-11-20T00:52:46.895Z,21.77
2022-11-20T00:55:14.214Z,29.60
2022-11-20T00:57:41.205Z,26.47
2022-11-20T01:00:08.786Z,23.20
2022-11-20T01:02:36.179Z,24.73
2022-11-20T01:05:03.824Z,23.43
2022-11-20T01:07:30.879Z,25.90
2022-11-20T01:09:58.000Z,25.07
2022-11-20T01:12:25.032Z,25.70
2022-11-20T01:14:52.069Z,27.57
2022-11-20T01:17:19.147Z,28.00
2022-11-20T01:19:46.183Z,27.80
2022-11-20T01:22:13.352Z,28.00
2022-11-20T01:24:40.605Z,27.43
2022-11-20T01:27:07.768Z,23.07
2022-11-20T01:29:35.053Z,24.87
2022-11-20T01:32:02.185Z,28.00
2022-11-20T01:34:29.357Z,31.40
2022-11-20T01:36:56.618Z,26.73
2022-11-20T01:39:27.204Z,24.13
2022-11-20T01:42:13.612Z,23.23
2022-11-20T01:44:49.557Z,24.83
2022-11-20T01:47:37.130Z,25.13
2022-11-20T01:50:15.061Z,21.83
2022-11-20T01:52:54.339Z,23.07
2022-11-20T01:55:23.547Z,24.47
2022-11-20T01:57:50.689Z,24.57
2022-11-20T02:00:18.957Z,27.33
2022-11-20T02:02:51.064Z,24.63
2022-11-20T02:05:34.120Z,26.67
2022-11-20T02:08:01.333Z,24.67
2022-11-20T02:10:28.500Z,24.33
2022-11-20T02:13:14.197Z,28.53
2022-11-20T02:15:41.626Z,27.23
2022-11-20T02:18:09.033Z,27.07
2022-11-20T02:20:36.125Z,26.23
2022-11-20T02:23:13.906Z,26.97
2022-11-20T02:25:40.991Z,25.53
2022-11-20T02:28:08.103Z,27.07
2022-11-20T02:30:35.333Z,25.57
2022-11-20T02:33:02.404Z,26.70
2022-11-20T02:35:29.501Z,28.50
2022-11-20T02:37:58.275Z,29.67
2022-11-20T02:40:25.491Z,24.10
2022-11-20T02:42:58.545Z,22.60
2022-11-20T02:45:25.991Z,23.90
2022-11-20T02:47:53.234Z,24.13
2022-11-20T02:50:20.481Z,26.37
2022-11-20T02:52:47.838Z,25.50
2022-11-20T02:55:15.031Z,20.50
2022-11-20T02:57:42.351Z,23.83
2022-11-20T03:00:10.483Z,27.10
2022-11-20T03:02:37.718Z,25.17
2022-11-20T03:05:05.279Z,24.27
2022-11-20T03:07:32.976Z,25.17
2022-11-20T03:10:00.131Z,23.33
2022-11-20T03:12:27.307Z,26.40
2022-11-20T03:14:54.556Z,23.87
2022-11-20T03:17:21.673Z,23.30
2022-11-20T03:19:48.827Z,21.30
2022-11-20T03:22:16.081Z,21.50
2022-11-20T03:24:43.127Z,18.77
2022-11-20T03:27:10.297Z,20.90
2022-11-20T03:29:37.435Z,19.17
2022-11-20T03:32:04.681Z,20.30
2022-11-20T03:34:31.851Z,18.97
2022-11-20T03:36:58.997Z,18.47
2022-11-20T03:39:26.201Z,16.37
2022-11-20T03:41:53.290Z,16.30
2022-11-20T03:44:22.334Z,17.87
2022-11-20T03:46:49.579Z,17.93
2022-11-20T03:49:16.733Z,13.60
2022-11-20T03:51:43.985Z,15.57
2022-11-20T03:54:11.110Z,15.07
2022-11-20T03:56:39.085Z,14.30
2022-11-20T03:59:06.693Z,13.20
2022-11-20T04:01:38.569Z,12.87
2022-11-20T04:04:06.134Z,17.40
2022-11-20T04:06:38.155Z,11.50
2022-11-20T04:09:05.268Z,10.80
2022-11-20T04:11:33.763Z,9.93
2022-11-20T04:14:05.893Z,9.40
2022-11-20T04:16:34.861Z,10.10
2022-11-20T04:19:03.523Z,9.87
2022-11-20T04:21:30.781Z,9.37
2022-11-20T04:23:57.873Z,9.30
2022-11-20T04:26:27.303Z,11.27
2022-11-20T04:28:54.549Z,10.97
2022-11-20T04:31:26.125Z,11.27
2022-11-20T04:33:53.394Z,9.13
2022-11-20T04:36:25.180Z,12.00
2022-11-20T04:38:57.255Z,10.43
2022-11-20T04:41:26.256Z,11.27
2022-11-20T04:43:55.266Z,10.80
2022-11-20T04:46:22.398Z,12.33
2022-11-20T04:48:49.581Z,10.50
2022-11-20T04:51:16.685Z,12.93
2022-11-20T04:53:43.896Z,9.80
2022-11-20T04:56:12.037Z,10.30
2022-11-20T04:58:39.459Z,12.77
2022-11-20T05:01:17.686Z,9.77
2022-11-20T05:03:45.158Z,10.27
2022-11-20T05:06:13.999Z,11.80
2022-11-20T05:08:41.192Z,11.10
2022-11-20T05:11:10.326Z,11.50
2022-11-20T05:13:37.658Z,11.40
2022-11-20T05:16:20.555Z,10.73
2022-11-20T05:18:48.072Z,12.30
2022-11-20T05:21:15.388Z,11.80
2022-11-20T05:23:42.639Z,15.30
2022-11-20T05:26:13.714Z,12.03
2022-11-20T05:28:40.992Z,10.00
2022-11-20T05:31:09.186Z,10.57
2022-11-20T05:33:36.661Z,10.87
2022-11-20T05:36:04.780Z,11.20
2022-11-20T05:38:32.072Z,10.57
2022-11-20T05:41:25.764Z,9.47
2022-11-20T05:43:53.103Z,11.70
2022-11-20T05:46:26.402Z,10.00
2022-11-20T05:48:55.479Z,10.53
2022-11-20T05:51:24.048Z,12.70
2022-11-20T05:53:51.080Z,10.50
2022-11-20T05:56:19.783Z,9.73
2022-11-20T05:58:47.242Z,10.57
2022-11-20T06:01:16.331Z,10.27
2022-11-20T06:03:45.110Z,12.00
2022-11-20T06:06:12.296Z,21.33
2022-11-20T06:08:39.518Z,38.80
2022-11-20T06:11:07.526Z,17.23
2022-11-20T06:13:39.212Z,13.27
2022-11-20T06:16:08.718Z,12.50
2022-11-20T06:18:35.860Z,11.90
2022-11-20T06:21:16.341Z,19.83
2022-11-20T06:23:43.629Z,11.27
2022-11-20T06:26:27.381Z,11.07
2022-11-20T06:28:55.017Z,12.33
2022-11-20T06:31:23.407Z,14.63
2022-11-20T06:33:50.634Z,10.93
2022-11-20T06:36:19.116Z,11.17
2022-11-20T06:38:46.174Z,14.60
2022-11-20T06:41:17.963Z,12.33
2022-11-20T06:43:45.264Z,11.37
2022-11-20T06:46:13.518Z,10.30
2022-11-20T06:48:40.849Z,10.43
2022-11-20T06:51:08.478Z,9.43
2022-11-20T06:53:36.053Z,10.00
2022-11-20T06:56:03.371Z,9.87
2022-11-20T06:58:32.018Z,8.97
2022-11-20T07:01:07.073Z,9.60
2022-11-20T07:03:34.387Z,9.80
2022-11-20T07:06:01.805Z,9.10
2022-11-20T07:08:29.016Z,9.43
2022-11-20T07:11:07.227Z,9.97
2022-11-20T07:13:34.930Z,8.83
2022-11-20T07:16:03.345Z,10.10
2022-11-20T07:18:30.825Z,8.87
2022-11-20T07:21:01.136Z,7.20
2022-11-20T07:23:28.310Z,8.70
2022-11-20T07:25:55.512Z,6.97
2022-11-20T07:28:22.816Z,8.60
2022-11-20T07:30:53.386Z,9.37
2022-11-20T07:33:20.822Z,8.83
2022-11-20T07:35:48.175Z,8.80
2022-11-20T07:38:15.323Z,6.47
2022-11-20T07:40:42.449Z,10.73
2022-11-20T07:43:09.768Z,7.57
2022-11-20T07:45:36.914Z,6.07
2022-11-20T07:48:04.290Z,6.60
2022-11-20T07:50:31.749Z,7.20
2022-11-20T07:53:05.487Z,13.47
2022-11-20T07:55:32.756Z,11.20
2022-11-20T07:58:00.113Z,15.00
2022-11-20T08:00:27.889Z,16.27
2022-11-20T08:02:55.171Z,10.87
2022-11-20T08:05:22.310Z,7.27
2022-11-20T08:07:49.580Z,7.60
2022-11-20T08:10:19.830Z,7.00
2022-11-20T08:13:09.937Z,8.63
2022-11-20T08:15:37.182Z,6.43
2022-11-20T08:18:32.147Z,6.93
2022-11-20T08:21:03.866Z,5.87
2022-11-20T08:23:31.393Z,6.37
2022-11-20T08:25:58.617Z,4.87
2022-11-20T08:28:25.786Z,5.10
2022-11-20T08:30:53.001Z,6.10
2022-11-20T08:33:20.166Z,7.23
2022-11-20T08:35:47.373Z,5.90
2022-11-20T08:38:14.841Z,13.70
2022-11-20T08:40:42.209Z,15.00
2022-11-20T08:43:09.398Z,8.83
2022-11-20T08:45:36.574Z,6.90
2022-11-20T08:48:04.586Z,5.37
2022-11-20T08:50:33.510Z,5.40
2022-11-20T08:53:07.407Z,7.63
2022-11-20T08:55:36.669Z,7.50
2022-11-20T08:58:07.818Z,6.20
2022-11-20T09:00:35.287Z,5.70
2022-11-20T09:03:02.749Z,8.40
2022-11-20T09:05:30.098Z,8.40
2022-11-20T09:08:00.134Z,6.30
2022-11-20T09:10:30.220Z,7.70
2022-11-20T09:12:57.341Z,7.07
2022-11-20T09:15:25.099Z,6.93
2022-11-20T09:17:53.484Z,7.87
2022-11-20T09:20:20.710Z,8.17
2022-11-20T09:22:47.796Z,7.83
2022-11-20T09:25:14.931Z,8.70
2022-11-20T09:27:44.849Z,9.27
2022-11-20T09:30:12.395Z,7.83
2022-11-20T09:32:42.732Z,8.43
2022-11-20T09:35:10.207Z,8.30
2022-11-20T09:37:37.381Z,10.17
2022-11-20T09:40:05.004Z,8.97
2022-11-20T09:42:49.069Z,12.30
2022-11-20T09:45:23.393Z,9.67
2022-11-20T09:48:27.383Z,11.83
2022-11-20T09:50:59.331Z,10.00
2022-11-20T09:53:48.646Z,10.93
2022-11-20T09:56:19.838Z,12.43
2022-11-20T09:58:52.028Z,12.17
2022-11-20T10:01:20.424Z,12.33
2022-11-20T10:03:56.569Z,11.57
2022-11-20T10:06:59.451Z,10.77
2022-11-20T10:09:37.722Z,11.20
2022-11-20T10:12:37.414Z,12.10
2022-11-20T10:15:13.394Z,17.83
2022-11-20T10:17:46.436Z,12.93
2022-11-20T10:20:31.619Z,13.40
2022-11-20T10:23:06.144Z,11.47
2022-11-20T10:25:40.459Z,15.37
2022-11-20T10:28:07.797Z,14.23
2022-11-20T10:30:38.432Z,12.57
2022-11-20T10:33:07.820Z,13.20
2022-11-20T10:35:44.429Z,14.47
2022-11-20T10:38:19.513Z,13.43
2022-11-20T10:40:49.499Z,13.33
2022-11-20T10:43:22.842Z,14.50
2022-11-20T10:45:59.621Z,14.97
2022-11-20T10:48:27.857Z,14.87
2022-11-20T10:51:05.026Z,16.53
2022-11-20T10:53:57.883Z,15.73
2022-11-20T10:56:48.303Z,11.60
2022-11-20T10:59:46.926Z,13.43
2022-11-20T11:02:24.360Z,15.57
2022-11-20T11:04:52.569Z,13.47
2022-11-20T11:07:35.363Z,14.60
2022-11-20T11:10:02.463Z,12.97
2022-11-20T11:12:30.068Z,12.57
2022-11-20T11:14:58.604Z,12.43
2022-11-20T11:17:33.325Z,12.67
2022-11-20T11:20:25.562Z,14.80
2022-11-20T11:22:59.650Z,13.93
2022-11-20T11:25:35.236Z,12.90
2022-11-20T11:28:23.142Z,12.23
2022-11-20T11:30:50.393Z,11.47
2022-11-20T11:33:25.291Z,12.03
2022-11-20T11:35:59.563Z,10.93
2022-11-20T11:38:32.345Z,14.00
2022-11-20T11:40:59.329Z,14.73
2022-11-20T11:43:45.973Z,12.90
2022-11-20T11:46:35.742Z,10.77
2022-11-20T11:49:17.192Z,12.37
2022-11-20T11:51:58.450Z,13.87
2022-11-20T11:54:29.269Z,14.43
2022-11-20T11:56:56.198Z,13.97
2022-11-20T11:59:40.820Z,16.03
2022-11-20T12:02:30.984Z,13.77
2022-11-20T12:05:18.345Z,11.70
2022-11-20T12:08:11.008Z,13.07
2022-11-20T12:10:58.497Z,14.83
2022-11-20T12:13:34.804Z,14.13
2022-11-20T12:16:03.152Z,12.67
2022-11-20T12:18:30.542Z,13.00
2022-11-20T12:21:06.791Z,10.97
2022-11-20T12:23:43.221Z,10.83
2022-11-20T12:26:19.183Z,10.77
2022-11-20T12:28:54.423Z,12.57
2022-11-20T12:31:54.172Z,12.03
2022-11-20T12:34:58.483Z,13.07
2022-11-20T12:37:36.799Z,12.40
2022-11-20T12:40:17.169Z,16.47
2022-11-20T12:43:07.849Z,17.73
2022-11-20T12:45:47.980Z,13.17
2022-11-20T12:48:26.921Z,12.93
2022-11-20T12:51:19.006Z,15.80
2022-11-20T12:54:15.804Z,13.30
2022-11-20T12:56:51.793Z,14.37
2022-11-20T12:59:30.516Z,12.17
2022-11-20T13:02:24.738Z,12.67
2022-11-20T13:05:24.211Z,12.80
2022-11-20T13:07:52.413Z,14.30
2022-11-20T13:10:37.034Z,15.50
2022-11-20T13:13:30.506Z,23.77
2022-11-20T13:16:15.794Z,13.97
2022-11-20T13:18:43.746Z,11.73
2022-11-20T13:21:23.859Z,12.33
2022-11-20T13:23:50.796Z,13.57
2022-11-20T13:26:18.953Z,11.80
2022-11-20T13:28:48.046Z,15.37
2022-11-20T13:31:31.737Z,16.40
2022-11-20T13:33:58.882Z,14.77
2022-11-20T13:36:28.394Z,22.33
2022-11-20T13:38:56.396Z,16.67
2022-11-20T13:41:39.130Z,17.93
2022-11-20T13:44:23.317Z,40.60
2022-11-20T13:46:50.435Z,30.00
2022-11-20T13:49:26.653Z,34.93
2022-11-20T13:52:03.307Z,27.93
2022-11-20T13:55:08.596Z,46.83
2022-11-20T13:57:47.710Z,31.83
2022-11-20T14:00:18.537Z,21.13
2022-11-20T14:02:47.406Z,18.83
2022-11-20T14:05:24.166Z,22.43
2022-11-20T14:07:52.117Z,13.60
2022-11-20T14:10:31.384Z,15.67
2022-11-20T14:12:59.328Z,13.57
2022-11-20T14:15:34.867Z,16.10
2022-11-20T14:18:12.034Z,15.57
2022-11-20T14:20:39.206Z,17.53
2022-11-20T14:23:06.415Z,15.77
2022-11-20T14:25:33.866Z,14.33
2022-11-20T14:28:02.133Z,16.10
2022-11-20T14:30:45.825Z,12.70
2022-11-20T14:33:13.450Z,13.23
2022-11-20T14:35:48.188Z,11.53
2022-11-20T14:38:17.499Z,10.83
2022-11-20T14:40:44.649Z,12.27
2022-11-20T14:43:21.081Z,11.73
2022-11-20T14:46:25.263Z,11.97
2022-11-20T14:49:02.296Z,11.93
2022-11-20T14:51:42.480Z,9.93
2022-11-20T14:54:16.862Z,11.07
2022-11-20T14:56:54.502Z,14.70
2022-11-20T14:59:28.270Z,12.07
2022-11-20T15:02:15.441Z,13.07
2022-11-20T15:04:49.388Z,10.33
2022-11-20T15:07:30.827Z,13.67
2022-11-20T15:10:06.406Z,12.07
2022-11-20T15:12:34.058Z,7.93
2022-11-20T15:15:03.608Z,9.13
2022-11-20T15:17:31.726Z,34.27
2022-11-20T15:19:58.754Z,44.40
2022-11-20T15:22:25.714Z,18.73
2022-11-20T15:24:52.687Z,15.00
2022-11-20T15:27:19.646Z,6.40
2022-11-20T15:29:46.610Z,6.53
2022-11-20T15:32:13.895Z,5.47
2022-11-20T15:34:41.254Z,5.60
2022-11-20T15:37:08.214Z,10.17
2022-11-20T15:39:35.386Z,10.80
2022-11-20T15:42:02.679Z,11.33
2022-11-20T15:44:30.459Z,10.07
2022-11-20T15:46:57.445Z,15.10
2022-11-20T15:49:25.124Z,14.93
2022-11-20T15:51:54.156Z,14.40
2022-11-20T15:54:22.969Z,24.50
2022-11-20T15:56:50.909Z,13.17
2022-11-20T15:59:17.925Z,11.27
2022-11-20T16:01:45.205Z,7.67
2022-11-20T16:04:13.469Z,24.17
2022-11-20T16:06:40.566Z,17.47
2022-11-20T16:09:08.023Z,22.70
2022-11-20T16:11:37.736Z,19.67
2022-11-20T16:14:23.760Z,20.37
2022-11-20T16:16:51.277Z,23.73
2022-11-20T16:19:19.227Z,11.10
2022-11-20T16:21:46.357Z,13.33
2022-11-20T16:24:15.007Z,22.83
2022-11-20T16:26:42.472Z,19.10
2022-11-20T16:29:09.759Z,16.50
2022-11-20T16:31:36.868Z,15.23
2022-11-20T16:34:10.144Z,14.40
2022-11-20T16:36:40.748Z,9.63
2022-11-20T16:39:07.932Z,10.33
2022-11-20T16:41:35.226Z,12.33
2022-11-20T16:44:03.713Z,11.83
2022-11-20T16:46:31.759Z,9.47
2022-11-20T16:49:01.064Z,10.33
2022-11-20T16:51:29.307Z,8.57
2022-11-20T16:53:56.828Z,11.57
2022-11-20T16:56:25.928Z,10.07
2022-11-20T16:58:54.949Z,10.27
2022-11-20T17:01:22.723Z,11.27
2022-11-20T17:03:57.628Z,8.83
2022-11-20T17:06:26.618Z,9.33
2022-11-20T17:08:54.845Z,12.23
2022-11-20T17:11:21.823Z,7.57
2022-11-20T17:13:48.993Z,9.70
2022-11-20T17:16:18.228Z,9.77
2022-11-20T17:18:45.675Z,7.10
2022-11-20T17:21:13.042Z,11.10
2022-11-20T17:23:41.749Z,11.60
2022-11-20T17:26:10.875Z,10.43
2022-11-20T17:28:38.490Z,11.17
2022-11-20T17:31:11.002Z,9.87
2022-11-20T17:33:38.821Z,7.93
2022-11-20T17:36:07.006Z,11.23
2022-11-20T17:38:34.429Z,6.27
2022-11-20T17:41:05.428Z,7.43
2022-11-20T17:43:35.705Z,11.80
2022-11-20T17:46:07.225Z,6.40
2022-11-20T17:48:34.966Z,6.37
2022-11-20T17:51:03.002Z,7.73
2022-11-20T17:53:32.946Z,7.63
2022-11-20T17:56:18.492Z,4.67
2022-11-20T17:58:46.014Z,6.40
2022-11-20T18:01:13.493Z,9.40
2022-11-20T18:03:40.784Z,6.73
2022-11-20T18:06:17.450Z,6.37
2022-11-20T18:08:44.962Z,7.80
2022-11-20T18:11:25.114Z,8.90
2022-11-20T18:14:12.489Z,5.97
2022-11-20T18:16:44.373Z,7.23
2022-11-20T18:19:13.337Z,5.50
2022-11-20T18:21:40.953Z,4.47
2022-11-20T18:24:08.646Z,7.77
2022-11-20T18:26:41.328Z,6.77
2022-11-20T18:29:11.402Z,8.00
2022-11-20T18:31:38.683Z,7.50
2022-11-20T18:34:07.062Z,6.97
2022-11-20T18:36:34.368Z,5.17
2022-11-20T18:39:01.987Z,5.47
2022-11-20T18:41:49.619Z,7.97
2022-11-20T18:44:37.616Z,8.33
2022-11-20T18:47:13.764Z,5.77
2022-11-20T18:49:52.655Z,9.63
2022-11-20T18:52:25.071Z,5.77
2022-11-20T18:54:52.855Z,9.17
2022-11-20T18:57:24.932Z,5.33
2022-11-20T18:59:53.806Z,7.90
2022-11-20T19:02:21.273Z,6.20
2022-11-20T19:04:48.650Z,9.27
2022-11-20T19:07:16.308Z,8.90
2022-11-20T19:09:44.533Z,7.67
2022-11-20T19:12:12.341Z,8.53
2022-11-20T19:14:39.556Z,7.33
2022-11-20T19:17:07.114Z,7.80
2022-11-20T19:19:34.943Z,6.37
2022-11-20T19:22:02.337Z,8.60
2022-11-20T19:24:29.709Z,7.13
2022-11-20T19:26:56.878Z,5.93
2022-11-20T19:29:24.607Z,6.40
2022-11-20T19:31:51.931Z,6.73
2022-11-20T19:34:18.855Z,8.67
2022-11-20T19:36:46.763Z,7.53
2022-11-20T19:39:13.972Z,6.23
2022-11-20T19:41:41.568Z,8.30
2022-11-20T19:44:10.586Z,6.30
2022-11-20T19:46:38.732Z,5.63
2022-11-20T19:49:07.996Z,7.83
2022-11-20T19:51:35.318Z,8.30
2022-11-20T19:54:02.786Z,7.13
2022-11-20T19:56:30.651Z,7.90
2022-11-20T19:58:57.928Z,7.60
2022-11-20T20:01:26.944Z,5.57
2022-11-20T20:03:55.392Z,10.40
2022-11-20T20:06:24.200Z,8.13
2022-11-20T20:08:55.583Z,6.13
2022-11-20T20:11:25.587Z,9.67
2022-11-20T20:13:53.618Z,5.33
2022-11-20T20:16:23.184Z,8.90
2022-11-20T20:18:53.874Z,5.83
2022-11-20T20:21:20.823Z,6.70
2022-11-20T20:23:51.312Z,8.40
2022-11-20T20:26:18.466Z,6.13
2022-11-20T20:28:45.419Z,6.80
2022-11-20T20:31:14.380Z,5.80
2022-11-20T20:33:41.611Z,6.17
2022-11-20T20:36:09.515Z,5.57
2022-11-20T20:38:36.606Z,6.10
2022-11-20T20:41:03.807Z,6.77
2022-11-20T20:43:31.736Z,7.03
2022-11-20T20:45:58.911Z,7.70
2022-11-20T20:48:25.885Z,7.17
2022-11-20T20:50:57.604Z,6.73
2022-11-20T20:53:24.772Z,6.63
2022-11-20T20:56:01.888Z,7.27
2022-11-20T20:58:29.759Z,5.80
2022-11-20T21:01:08.326Z,7.30
2022-11-20T21:03:35.742Z,7.07
2022-11-20T21:06:03.087Z,10.00
2022-11-20T21:08:30.120Z,11.57
2022-11-20T21:11:07.901Z,6.40
2022-11-20T21:13:35.682Z,6.17
2022-11-20T21:16:02.670Z,6.33
2022-11-20T21:18:29.795Z,6.40
2022-11-20T21:21:15.741Z,5.57
2022-11-20T21:23:45.909Z,6.07
2022-11-20T21:26:13.037Z,6.30
2022-11-20T21:28:40.068Z,5.47
2022-11-20T21:31:08.996Z,7.50
2022-11-20T21:33:43.737Z,6.53
2022-11-20T21:36:12.739Z,7.97
2022-11-20T21:38:40.448Z,8.70
2022-11-20T21:41:08.467Z,10.60
2022-11-20T21:43:35.689Z,9.20
2022-11-20T21:46:07.767Z,7.17
2022-11-20T21:48:36.118Z,7.40
2022-11-20T21:51:09.882Z,7.47
2022-11-20T21:53:37.410Z,8.60
2022-11-20T21:56:05.210Z,7.80
2022-11-20T21:58:32.663Z,9.30
2022-11-20T22:00:59.643Z,7.63
2022-11-20T22:03:26.954Z,9.77
2022-11-20T22:05:55.854Z,8.33
2022-11-20T22:08:26.218Z,8.80
2022-11-20T22:11:00.092Z,10.63
2022-11-20T22:13:46.383Z,6.90
2022-11-20T22:16:13.962Z,5.23
2022-11-20T22:18:54.450Z,5.77
2022-11-20T22:21:22.838Z,9.67
2022-11-20T22:23:50.503Z,9.60
2022-11-20T22:26:19.580Z,10.40
2022-11-20T22:28:50.803Z,9.23
2022-11-20T22:31:18.742Z,6.70
2022-11-20T22:33:45.994Z,8.47
2022-11-20T22:36:14.775Z,7.47
2022-11-20T22:38:42.017Z,6.10
2022-11-20T22:41:16.423Z,7.10
2022-11-20T22:43:44.115Z,7.53
2022-11-20T22:46:15.466Z,8.33
2022-11-20T22:48:56.753Z,8.40
2022-11-20T22:51:25.366Z,9.90
2022-11-20T22:53:52.573Z,9.33
2022-11-20T22:56:20.019Z,13.67
2022-11-20T22:58:48.497Z,12.40
2022-11-20T23:01:17.456Z,8.37
2022-11-20T23:03:46.037Z,11.57
2022-11-20T23:06:13.299Z,6.87
2022-11-20T23:08:40.885Z,5.80
2022-11-20T23:11:13.178Z,4.27
2022-11-20T23:13:40.890Z,4.87
2022-11-20T23:16:09.754Z,4.63
2022-11-20T23:18:37.245Z,5.70
2022-11-20T23:21:08.713Z,5.07
2022-11-20T23:23:35.918Z,9.80
2022-11-20T23:26:22.748Z,5.43
2022-11-20T23:28:50.057Z,6.53
2022-11-20T23:31:17.292Z,7.37
2022-11-20T23:33:45.660Z,6.50
2022-11-20T23:36:13.094Z,5.67
2022-11-20T23:38:40.569Z,4.87
2022-11-20T23:41:07.947Z,5.10
2022-11-20T23:43:35.152Z,4.93
2022-11-20T23:46:02.756Z,4.50
2022-11-20T23:48:31.308Z,4.30
2022-11-20T23:50:58.544Z,4.43
2022-11-20T23:53:25.768Z,5.77
2022-11-20T23:55:57.518Z,7.30
2022-11-20T23:58:25.707Z,4.50
